createdAt,value
2018-12-21T00:00:15.476Z,1.07
2018-12-21T00:02:44.515Z,1.50
2018-12-21T00:05:12.105Z,2.20
2018-12-21T00:07:39.574Z,2.37
2018-12-21T00:10:07.134Z,1.45
2018-12-21T00:12:34.710Z,1.85
2018-12-21T00:15:02.129Z,1.70
2018-12-21T00:17:34.403Z,1.85
2018-12-21T00:19:58.969Z,1.55
2018-12-21T00:22:26.469Z,1.52
2018-12-21T00:24:53.862Z,1.45
2018-12-21T00:27:21.262Z,1.85
2018-12-21T00:29:48.653Z,1.60
2018-12-21T00:32:21.826Z,1.85
2018-12-21T00:34:55.006Z,1.22
2018-12-21T00:37:28.173Z,1.77
2018-12-21T00:40:01.187Z,2.00
2018-12-21T00:42:32.515Z,2.00
2018-12-21T00:45:06.067Z,1.45
2018-12-21T00:47:33.547Z,1.20
2018-12-21T00:50:01.074Z,1.62
2018-12-21T00:52:28.545Z,1.80
2018-12-21T00:54:56.014Z,1.32
2018-12-21T00:57:23.483Z,2.12
2018-12-21T00:59:50.958Z,1.50
2018-12-21T01:02:18.377Z,1.80
2018-12-21T01:04:45.850Z,1.22
2018-12-21T01:07:13.298Z,1.55
2018-12-21T01:09:40.818Z,1.57
2018-12-21T01:12:09.344Z,1.95
2018-12-21T01:14:36.897Z,2.00
2018-12-21T01:17:04.617Z,1.60
2018-12-21T01:19:32.024Z,1.57
2018-12-21T01:21:59.620Z,1.85
2018-12-21T01:24:27.118Z,1.60
2018-12-21T01:26:54.514Z,2.00
2018-12-21T01:29:22.025Z,1.85
2018-12-21T01:31:49.499Z,1.40
2018-12-21T01:34:16.906Z,2.20
2018-12-21T01:36:44.433Z,1.82
2018-12-21T01:39:11.913Z,1.87
2018-12-21T01:41:39.335Z,1.35
2018-12-21T01:44:06.882Z,1.80
2018-12-21T01:46:34.337Z,1.92
2018-12-21T01:49:01.818Z,1.60
2018-12-21T01:51:29.261Z,1.37
2018-12-21T01:53:56.735Z,1.35
2018-12-21T01:56:24.147Z,2.20
2018-12-21T01:58:51.622Z,2.55
2018-12-21T02:01:19.251Z,1.80
2018-12-21T02:03:46.759Z,1.45
2018-12-21T02:06:14.254Z,1.77
2018-12-21T02:08:41.727Z,1.22
2018-12-21T02:11:09.225Z,1.20
2018-12-21T02:13:36.637Z,1.35
2018-12-21T02:16:04.089Z,1.65
2018-12-21T02:18:31.554Z,1.30
2018-12-21T02:20:59.153Z,1.30
2018-12-21T02:23:26.557Z,1.30
2018-12-21T02:25:53.961Z,1.20
2018-12-21T02:28:21.381Z,1.00
2018-12-21T02:30:48.857Z,1.02
2018-12-21T02:33:16.285Z,1.00
2018-12-21T02:35:43.731Z,1.45
2018-12-21T02:38:11.224Z,1.30
2018-12-21T02:40:38.721Z,1.20
2018-12-21T02:43:06.167Z,1.20
2018-12-21T02:45:33.717Z,1.30
2018-12-21T02:48:01.185Z,1.47
2018-12-21T02:50:28.618Z,1.07
2018-12-21T02:52:56.116Z,1.12
2018-12-21T02:55:23.616Z,1.30
2018-12-21T02:57:51.101Z,2.25
2018-12-21T03:00:18.554Z,2.10
2018-12-21T03:02:45.950Z,1.20
2018-12-21T03:05:13.470Z,1.75
2018-12-21T03:07:40.934Z,1.42
2018-12-21T03:10:08.383Z,1.55
2018-12-21T03:12:35.854Z,1.12
2018-12-21T03:15:04.777Z,1.42
2018-12-21T03:17:32.206Z,1.60
2018-12-21T03:19:59.616Z,1.95
2018-12-21T03:22:27.021Z,1.10
2018-12-21T03:24:54.414Z,1.05
2018-12-21T03:27:21.893Z,1.25
2018-12-21T03:29:49.413Z,1.35
2018-12-21T03:32:16.984Z,1.40
2018-12-21T03:34:44.455Z,1.70
2018-12-21T03:37:11.938Z,1.55
2018-12-21T03:39:39.494Z,1.40
2018-12-21T03:42:07.198Z,1.42
2018-12-21T03:44:34.594Z,1.62
2018-12-21T03:47:02.021Z,1.77
2018-12-21T03:49:29.415Z,1.65
2018-12-21T03:51:56.885Z,1.80
2018-12-21T03:54:24.285Z,1.50
2018-12-21T03:56:51.778Z,1.60
2018-12-21T03:59:19.250Z,1.70
2018-12-21T04:01:46.658Z,1.65
2018-12-21T04:04:14.067Z,1.90
2018-12-21T04:06:41.534Z,1.92
2018-12-21T04:09:09.013Z,1.57
2018-12-21T04:11:36.506Z,1.60
2018-12-21T04:14:03.957Z,1.40
2018-12-21T04:16:31.350Z,1.65
2018-12-21T04:18:58.846Z,1.80
2018-12-21T04:21:26.386Z,1.55
2018-12-21T04:23:53.966Z,1.80
2018-12-21T04:26:21.378Z,1.52
2018-12-21T04:28:48.849Z,2.08
2018-12-21T04:31:16.271Z,1.75
2018-12-21T04:33:43.750Z,1.52
2018-12-21T04:36:11.221Z,1.60
2018-12-21T04:38:38.720Z,2.52
2018-12-21T04:41:06.217Z,1.90
2018-12-21T04:43:33.670Z,1.60
2018-12-21T04:46:01.136Z,1.32
2018-12-21T04:48:28.606Z,1.87
2018-12-21T04:50:56.069Z,2.08
2018-12-21T04:53:23.497Z,1.85
2018-12-21T04:55:50.898Z,1.40
2018-12-21T04:58:18.323Z,1.50
2018-12-21T05:00:45.795Z,1.90
2018-12-21T05:03:13.398Z,1.70
2018-12-21T05:05:40.956Z,1.92
2018-12-21T05:08:08.432Z,1.72
2018-12-21T05:10:35.902Z,1.80
2018-12-21T05:13:03.426Z,1.90
2018-12-21T05:15:31.043Z,1.75
2018-12-21T05:17:58.474Z,1.82
2018-12-21T05:20:25.983Z,2.22
2018-12-21T05:22:53.456Z,1.55
2018-12-21T05:25:20.969Z,2.30
2018-12-21T05:27:48.434Z,1.57
2018-12-21T05:30:15.936Z,1.40
2018-12-21T05:32:43.426Z,1.65
2018-12-21T05:35:10.927Z,1.35
2018-12-21T05:37:38.424Z,1.77
2018-12-21T05:40:06.150Z,2.55
2018-12-21T05:42:33.650Z,1.85
2018-12-21T05:45:01.050Z,2.30
2018-12-21T05:47:28.475Z,1.35
2018-12-21T05:49:55.954Z,1.87
2018-12-21T05:52:23.419Z,3.47
2018-12-21T05:54:50.893Z,1.60
2018-12-21T05:57:18.314Z,2.52
2018-12-21T05:59:45.744Z,1.37
2018-12-21T06:02:13.163Z,2.12
2018-12-21T06:04:40.642Z,1.32
2018-12-21T06:07:08.057Z,1.70
2018-12-21T06:09:35.465Z,1.65
2018-12-21T06:12:02.942Z,2.05
2018-12-21T06:14:30.340Z,1.47
2018-12-21T06:16:57.830Z,1.92
2018-12-21T06:19:25.405Z,1.35
2018-12-21T06:21:52.870Z,2.10
2018-12-21T06:24:20.273Z,2.05
2018-12-21T06:26:47.670Z,2.05
2018-12-21T06:29:15.097Z,1.72
2018-12-21T06:31:42.547Z,2.30
2018-12-21T06:34:10.013Z,2.83
2018-12-21T06:36:37.441Z,1.47
2018-12-21T06:39:05.980Z,1.25
2018-12-21T06:41:33.378Z,1.60
2018-12-21T06:44:00.865Z,1.45
2018-12-21T06:46:28.363Z,1.37
2018-12-21T06:48:55.859Z,1.30
2018-12-21T06:51:23.330Z,1.72
2018-12-21T06:53:50.822Z,1.10
2018-12-21T06:56:18.254Z,1.30
2018-12-21T06:58:45.673Z,1.05
2018-12-21T07:01:13.194Z,1.05
2018-12-21T07:03:40.599Z,2.98
2018-12-21T07:06:08.233Z,1.35
2018-12-21T07:08:35.694Z,1.10
2018-12-21T07:11:03.176Z,1.00
2018-12-21T07:13:30.670Z,1.17
2018-12-21T07:15:58.140Z,1.20
2018-12-21T07:18:25.613Z,1.52
2018-12-21T07:20:53.114Z,1.02
2018-12-21T07:23:27.082Z,0.98
2018-12-21T07:25:49.974Z,0.90
2018-12-21T07:28:17.438Z,1.10
2018-12-21T07:30:44.866Z,0.85
2018-12-21T07:33:12.263Z,1.15
2018-12-21T07:35:39.661Z,0.75
2018-12-21T07:38:07.087Z,1.62
2018-12-21T07:40:34.567Z,1.05
2018-12-21T07:43:02.054Z,0.88
2018-12-21T07:45:29.529Z,0.82
2018-12-21T07:47:57.002Z,1.45
2018-12-21T07:50:24.541Z,0.93
2018-12-21T07:52:53.337Z,1.00
2018-12-21T07:55:20.910Z,1.07
2018-12-21T07:57:48.405Z,1.00
2018-12-21T08:00:15.866Z,1.40
2018-12-21T08:02:43.322Z,0.93
2018-12-21T08:05:10.793Z,1.10
2018-12-21T08:07:38.366Z,0.90
2018-12-21T08:10:09.426Z,0.80
2018-12-21T08:12:36.903Z,1.40
2018-12-21T08:15:05.215Z,0.70
2018-12-21T08:17:32.755Z,0.70
2018-12-21T08:20:00.222Z,0.90
2018-12-21T08:22:27.722Z,0.90
2018-12-21T08:24:55.117Z,0.90
2018-12-21T08:27:22.634Z,1.25
2018-12-21T08:29:50.029Z,1.20
2018-12-21T08:32:17.474Z,0.90
2018-12-21T08:34:44.872Z,0.80
2018-12-21T08:37:12.342Z,0.78
2018-12-21T08:39:39.738Z,1.32
2018-12-21T08:42:07.255Z,0.90
2018-12-21T08:44:34.646Z,0.80
2018-12-21T08:47:02.050Z,1.00
2018-12-21T08:49:29.472Z,1.17
2018-12-21T08:51:56.993Z,0.90
2018-12-21T08:54:24.414Z,1.17
2018-12-21T08:56:51.841Z,1.30
2018-12-21T08:59:19.331Z,1.50
2018-12-21T09:01:46.777Z,1.20
2018-12-21T09:04:14.178Z,1.05
2018-12-21T09:06:41.645Z,0.95
2018-12-21T09:09:09.107Z,0.90
2018-12-21T09:11:36.574Z,1.17
2018-12-21T09:14:04.025Z,1.30
2018-12-21T09:16:31.427Z,1.05
2018-12-21T09:18:58.906Z,0.82
2018-12-21T09:21:26.305Z,0.90
2018-12-21T09:24:00.872Z,1.98
2018-12-21T09:26:23.081Z,1.00
2018-12-21T09:28:50.486Z,1.22
2018-12-21T09:31:17.905Z,1.00
2018-12-21T09:33:45.382Z,1.30
2018-12-21T09:36:12.775Z,1.15
2018-12-21T09:38:40.207Z,1.25
2018-12-21T09:41:07.700Z,1.07
2018-12-21T09:43:35.201Z,1.30
2018-12-21T09:46:02.618Z,0.90
2018-12-21T09:48:30.094Z,1.00
2018-12-21T09:50:57.509Z,0.98
2018-12-21T09:53:24.918Z,1.27
2018-12-21T09:55:52.405Z,1.00
2018-12-21T09:58:19.877Z,1.00
2018-12-21T10:00:47.278Z,1.20
2018-12-21T10:03:14.674Z,1.25
2018-12-21T10:05:42.966Z,0.90
2018-12-21T10:08:10.457Z,1.15
2018-12-21T10:10:37.861Z,1.10
2018-12-21T10:13:05.270Z,0.93
2018-12-21T10:15:32.789Z,1.12
2018-12-21T10:18:00.186Z,1.15
2018-12-21T10:20:27.703Z,1.00
2018-12-21T10:22:55.102Z,1.20
2018-12-21T10:25:22.574Z,3.25
2018-12-21T10:27:50.065Z,1.50
2018-12-21T10:30:17.596Z,1.05
2018-12-21T10:32:45.066Z,1.05
2018-12-21T10:35:12.472Z,0.80
2018-12-21T10:37:39.996Z,1.45
2018-12-21T10:40:07.417Z,1.00
2018-12-21T10:42:34.818Z,1.17
2018-12-21T10:45:02.539Z,1.25
2018-12-21T10:47:30.027Z,0.80
2018-12-21T10:49:57.550Z,0.80
2018-12-21T10:52:24.977Z,0.80
2018-12-21T10:54:52.441Z,1.00
2018-12-21T10:57:19.895Z,0.90
2018-12-21T10:59:47.358Z,0.80
2018-12-21T11:02:14.854Z,0.68
2018-12-21T11:04:42.373Z,0.90
2018-12-21T11:07:09.870Z,0.70
2018-12-21T11:09:37.310Z,0.75
2018-12-21T11:12:04.765Z,0.70
2018-12-21T11:14:32.233Z,0.80
2018-12-21T11:16:59.827Z,0.82
2018-12-21T11:19:27.222Z,1.15
2018-12-21T11:21:54.767Z,0.75
2018-12-21T11:24:22.265Z,0.62
2018-12-21T11:26:49.808Z,0.70
2018-12-21T11:29:17.274Z,0.70
2018-12-21T11:31:44.774Z,0.60
2018-12-21T11:34:12.271Z,0.82
2018-12-21T11:36:39.791Z,0.70
2018-12-21T11:39:07.262Z,0.70
2018-12-21T11:41:34.693Z,0.65
2018-12-21T11:44:02.149Z,0.70
2018-12-21T11:46:29.645Z,0.80
2018-12-21T11:48:57.077Z,0.70
2018-12-21T11:51:24.469Z,0.70
2018-12-21T11:53:51.969Z,0.70
2018-12-21T11:56:19.397Z,0.62
2018-12-21T11:58:46.900Z,0.70
2018-12-21T12:01:14.299Z,0.70
2018-12-21T12:03:41.801Z,0.88
2018-12-21T12:06:09.236Z,0.70
2018-12-21T12:08:36.714Z,0.78
2018-12-21T12:11:04.170Z,0.70
2018-12-21T12:13:31.606Z,0.70
2018-12-21T12:15:59.110Z,0.70
2018-12-21T12:18:26.614Z,0.70
2018-12-21T12:20:54.054Z,0.80
2018-12-21T12:23:21.524Z,0.70
2018-12-21T12:25:48.994Z,0.70
2018-12-21T12:28:16.566Z,0.80
2018-12-21T12:30:44.061Z,0.80
2018-12-21T12:33:11.542Z,0.70
2018-12-21T12:35:38.958Z,0.70
2018-12-21T12:38:06.366Z,0.80
2018-12-21T12:40:33.801Z,0.68
2018-12-21T12:43:01.315Z,0.78
2018-12-21T12:45:28.827Z,0.60
2018-12-21T12:47:56.326Z,0.60
2018-12-21T12:50:23.846Z,0.60
2018-12-21T12:52:51.338Z,0.80
2018-12-21T12:55:18.834Z,0.70
2018-12-21T12:57:46.322Z,0.60
2018-12-21T13:00:13.842Z,0.70
2018-12-21T13:02:41.332Z,0.70
2018-12-21T13:05:09.229Z,0.70
2018-12-21T13:07:36.719Z,0.70
2018-12-21T13:10:07.042Z,0.78
2018-12-21T13:12:34.509Z,0.70
2018-12-21T13:15:02.086Z,0.80
2018-12-21T13:17:29.556Z,0.70
2018-12-21T13:19:56.995Z,0.80
2018-12-21T13:22:24.498Z,0.70
2018-12-21T13:24:51.894Z,0.65
2018-12-21T13:27:19.381Z,0.75
2018-12-21T13:29:46.980Z,0.60
2018-12-21T13:32:14.583Z,0.70
2018-12-21T13:34:42.089Z,0.60
2018-12-21T13:37:09.581Z,0.80
2018-12-21T13:39:37.002Z,0.70
2018-12-21T13:42:04.434Z,0.70
2018-12-21T13:44:32.035Z,0.90
2018-12-21T13:46:59.529Z,0.60
2018-12-21T13:49:26.974Z,0.60
2018-12-21T13:51:54.551Z,0.60
2018-12-21T13:54:22.118Z,0.70
2018-12-21T13:56:49.590Z,0.68
2018-12-21T13:59:17.163Z,0.60
2018-12-21T14:01:44.641Z,0.60
2018-12-21T14:04:12.134Z,0.80
2018-12-21T14:06:39.609Z,0.60
2018-12-21T14:09:07.094Z,0.80
2018-12-21T14:11:34.614Z,0.75
2018-12-21T14:14:02.033Z,0.82
2018-12-21T14:16:29.515Z,0.80
2018-12-21T14:18:57.128Z,0.70
2018-12-21T14:21:24.749Z,0.70
2018-12-21T14:23:52.174Z,0.68
2018-12-21T14:26:19.642Z,0.60
2018-12-21T14:28:47.038Z,0.60
2018-12-21T14:31:14.537Z,0.60
2018-12-21T14:33:42.054Z,0.80
2018-12-21T14:36:09.481Z,0.60
2018-12-21T14:38:36.950Z,0.80
2018-12-21T14:41:04.470Z,0.60
2018-12-21T14:43:32.041Z,0.80
2018-12-21T14:45:59.513Z,0.70
2018-12-21T14:48:26.979Z,0.78
2018-12-21T14:50:54.467Z,0.70
2018-12-21T14:53:21.902Z,0.80
2018-12-21T14:55:49.346Z,0.70
2018-12-21T14:58:16.842Z,0.70
2018-12-21T15:00:44.330Z,0.70
2018-12-21T15:03:11.757Z,0.80
2018-12-21T15:05:39.171Z,0.62
2018-12-21T15:08:06.682Z,0.70
2018-12-21T15:10:34.103Z,0.70
2018-12-21T15:13:01.601Z,0.70
2018-12-21T15:15:29.106Z,0.70
2018-12-21T15:17:56.551Z,0.60
2018-12-21T15:20:24.038Z,0.82
2018-12-21T15:22:51.467Z,0.60
2018-12-21T15:25:19.003Z,0.70
2018-12-21T15:27:46.450Z,0.75
2018-12-21T15:30:13.880Z,0.70
2018-12-21T15:32:41.374Z,0.68
2018-12-21T15:35:08.933Z,0.80
2018-12-21T15:37:36.367Z,0.88
2018-12-21T15:40:04.987Z,0.70
2018-12-21T15:42:32.454Z,0.60
2018-12-21T15:44:59.883Z,1.02
2018-12-21T15:47:27.299Z,0.70
2018-12-21T15:49:54.741Z,0.70
2018-12-21T15:52:22.164Z,0.78
2018-12-21T15:54:49.638Z,1.07
2018-12-21T15:57:17.145Z,0.60
2018-12-21T15:59:44.555Z,0.70
2018-12-21T16:02:12.065Z,0.80
2018-12-21T16:04:39.494Z,0.88
2018-12-21T16:07:06.914Z,1.00
2018-12-21T16:09:34.426Z,0.78
2018-12-21T16:12:01.863Z,0.70
2018-12-21T16:14:34.174Z,0.82
2018-12-21T16:16:58.829Z,0.80
2018-12-21T16:19:26.325Z,0.70
2018-12-21T16:21:53.746Z,0.70
2018-12-21T16:24:21.238Z,0.70
2018-12-21T16:26:48.720Z,0.70
2018-12-21T16:29:16.190Z,0.90
2018-12-21T16:31:43.685Z,0.70
2018-12-21T16:34:11.193Z,0.80
2018-12-21T16:36:38.641Z,0.72
2018-12-21T16:39:06.682Z,0.70
2018-12-21T16:41:34.105Z,0.60
2018-12-21T16:44:01.550Z,0.90
2018-12-21T16:46:29.066Z,0.82
2018-12-21T16:48:56.538Z,0.60
2018-12-21T16:51:24.034Z,0.70
2018-12-21T16:53:51.454Z,0.88
2018-12-21T16:56:18.930Z,0.90
2018-12-21T16:58:46.349Z,0.70
2018-12-21T17:01:13.846Z,0.70
2018-12-21T17:03:41.350Z,0.80
2018-12-21T17:06:08.825Z,0.80
2018-12-21T17:08:36.247Z,0.70
2018-12-21T17:11:03.762Z,1.00
2018-12-21T17:13:31.250Z,0.75
2018-12-21T17:15:58.673Z,0.90
2018-12-21T17:18:26.255Z,1.07
2018-12-21T17:20:53.749Z,0.80
2018-12-21T17:23:21.222Z,0.78
2018-12-21T17:25:48.742Z,0.80
2018-12-21T17:28:16.177Z,0.72
2018-12-21T17:30:43.603Z,0.90
2018-12-21T17:33:11.095Z,0.80
2018-12-21T17:35:38.627Z,0.70
2018-12-21T17:38:06.118Z,0.90
2018-12-21T17:40:33.539Z,0.80
2018-12-21T17:43:01.014Z,0.80
2018-12-21T17:45:28.409Z,0.80
2018-12-21T17:47:55.834Z,0.90
2018-12-21T17:50:23.380Z,0.90
2018-12-21T17:52:50.861Z,0.90
2018-12-21T17:55:18.284Z,0.70
2018-12-21T17:57:45.813Z,0.78
2018-12-21T18:00:14.429Z,1.17
2018-12-21T18:02:43.578Z,1.27
2018-12-21T18:05:10.982Z,1.10
2018-12-21T18:07:38.478Z,0.95
2018-12-21T18:10:09.214Z,0.80
2018-12-21T18:12:36.622Z,0.85
2018-12-21T18:15:06.673Z,0.90
2018-12-21T18:17:34.170Z,0.90
2018-12-21T18:20:01.718Z,0.88
2018-12-21T18:22:29.201Z,0.95
2018-12-21T18:24:57.494Z,1.10
2018-12-21T18:27:25.105Z,0.70
2018-12-21T18:29:52.525Z,1.00
2018-12-21T18:32:20.042Z,1.00
2018-12-21T18:34:47.550Z,1.10
2018-12-21T18:37:14.954Z,0.90
2018-12-21T18:39:42.425Z,0.90
2018-12-21T18:42:09.938Z,1.10
2018-12-21T18:44:37.378Z,1.37
2018-12-21T18:47:04.905Z,1.10
2018-12-21T18:49:32.416Z,1.10
2018-12-21T18:51:59.911Z,1.25
2018-12-21T18:54:27.384Z,1.17
2018-12-21T18:56:54.870Z,1.25
2018-12-21T18:59:22.391Z,1.42
2018-12-21T19:01:49.859Z,0.80
2018-12-21T19:04:17.354Z,1.30
2018-12-21T19:06:44.821Z,1.12
2018-12-21T19:09:12.322Z,0.80
2018-12-21T19:11:39.801Z,0.90
2018-12-21T19:14:07.248Z,0.88
2018-12-21T19:16:34.715Z,0.90
2018-12-21T19:19:02.218Z,1.55
2018-12-21T19:21:29.705Z,0.78
2018-12-21T19:23:57.217Z,1.20
2018-12-21T19:26:24.706Z,0.98
2018-12-21T19:28:52.221Z,1.37
2018-12-21T19:31:19.633Z,1.00
2018-12-21T19:33:47.146Z,1.20
2018-12-21T19:36:14.617Z,1.40
2018-12-21T19:38:42.034Z,1.30
2018-12-21T19:41:09.467Z,1.10
2018-12-21T19:43:36.954Z,1.10
2018-12-21T19:46:04.449Z,0.90
2018-12-21T19:48:31.918Z,1.40
2018-12-21T19:50:59.441Z,1.15
2018-12-21T19:53:26.842Z,1.45
2018-12-21T19:55:54.561Z,1.70
2018-12-21T19:58:21.986Z,1.52
2018-12-21T20:00:49.413Z,1.00
2018-12-21T20:03:16.813Z,1.20
2018-12-21T20:05:44.223Z,1.05
2018-12-21T20:08:11.694Z,1.20
2018-12-21T20:10:39.118Z,0.80
2018-12-21T20:13:06.526Z,0.98
2018-12-21T20:15:33.933Z,1.00
2018-12-21T20:18:01.333Z,1.10
2018-12-21T20:20:28.789Z,0.90
2018-12-21T20:22:56.254Z,0.90
2018-12-21T20:25:23.733Z,0.80
2018-12-21T20:27:51.157Z,0.80
2018-12-21T20:30:18.677Z,1.25
2018-12-21T20:32:46.074Z,1.00
2018-12-21T20:35:13.687Z,0.90
2018-12-21T20:37:41.193Z,0.93
2018-12-21T20:40:10.942Z,0.98
2018-12-21T20:42:38.390Z,0.70
2018-12-21T20:45:08.633Z,0.95
2018-12-21T20:47:36.186Z,0.88
2018-12-21T20:50:08.029Z,1.00
2018-12-21T20:52:35.478Z,0.90
2018-12-21T20:55:05.297Z,1.00
2018-12-21T20:57:32.809Z,0.90
2018-12-21T21:00:00.331Z,1.05
2018-12-21T21:02:27.806Z,1.00
2018-12-21T21:04:55.209Z,1.17
2018-12-21T21:07:22.658Z,1.20
2018-12-21T21:09:50.061Z,1.00
2018-12-21T21:12:17.539Z,0.80
2018-12-21T21:14:44.956Z,1.00
2018-12-21T21:17:12.437Z,1.00
2018-12-21T21:19:39.864Z,0.90
2018-12-21T21:22:07.363Z,1.00
2018-12-21T21:24:34.849Z,0.93
2018-12-21T21:27:02.361Z,1.00
2018-12-21T21:29:29.781Z,1.02
2018-12-21T21:31:57.729Z,1.30
2018-12-21T21:34:25.180Z,1.20
2018-12-21T21:36:52.811Z,0.95
2018-12-21T21:39:20.530Z,1.10
2018-12-21T21:41:47.994Z,0.88
2018-12-21T21:44:17.053Z,1.40
2018-12-21T21:46:44.506Z,1.17
2018-12-21T21:49:11.952Z,0.90
2018-12-21T21:51:39.489Z,1.00
2018-12-21T21:54:06.908Z,1.30
2018-12-21T21:56:34.876Z,1.05
2018-12-21T21:59:02.388Z,1.00
2018-12-21T22:01:29.827Z,1.02
2018-12-21T22:03:57.249Z,1.00
2018-12-21T22:06:24.762Z,0.98
2018-12-21T22:08:52.234Z,0.80
2018-12-21T22:11:19.733Z,0.90
2018-12-21T22:13:47.219Z,1.02
2018-12-21T22:16:14.686Z,1.22
2018-12-21T22:18:42.165Z,1.12
2018-12-21T22:21:09.563Z,0.90
2018-12-21T22:23:36.986Z,1.20
2018-12-21T22:26:04.494Z,1.37
2018-12-21T22:28:31.908Z,1.02
2018-12-21T22:30:59.430Z,0.90
2018-12-21T22:33:26.812Z,0.90
2018-12-21T22:35:54.279Z,1.10
2018-12-21T22:38:21.775Z,1.12
2018-12-21T22:40:49.282Z,1.10
2018-12-21T22:43:16.721Z,1.10
2018-12-21T22:45:44.126Z,1.50
2018-12-21T22:48:11.617Z,1.45
2018-12-21T22:50:39.098Z,1.30
2018-12-21T22:53:06.519Z,0.95
2018-12-21T22:55:33.947Z,1.20
2018-12-21T22:58:01.418Z,0.95
2018-12-21T23:00:30.854Z,0.95
2018-12-21T23:02:58.341Z,1.02
2018-12-21T23:05:25.750Z,0.98
2018-12-21T23:07:53.169Z,0.80
2018-12-21T23:10:20.660Z,0.90
2018-12-21T23:12:48.062Z,1.30
2018-12-21T23:15:15.507Z,0.90
2018-12-21T23:17:43.202Z,1.30
2018-12-21T23:20:10.678Z,1.40
2018-12-21T23:22:38.115Z,1.20
2018-12-21T23:25:05.933Z,1.20
2018-12-21T23:27:33.405Z,1.07
2018-12-21T23:30:00.853Z,0.90
2018-12-21T23:32:28.323Z,0.95
2018-12-21T23:34:55.903Z,0.95
2018-12-21T23:37:23.385Z,1.57
2018-12-21T23:39:50.818Z,1.10
2018-12-21T23:42:18.279Z,1.35
2018-12-21T23:44:45.774Z,0.98
2018-12-21T23:47:13.263Z,1.00
2018-12-21T23:49:40.749Z,1.30
2018-12-21T23:52:08.190Z,1.22
2018-12-21T23:54:35.598Z,0.93
2018-12-21T23:57:03.638Z,0.98
2018-12-21T23:59:31.201Z,1.35
